Time;durP1;ratioP1;P1;durP2;ratioP2;P2;SDS_P1;SDS_P2;PMS_P1;PMS_P2;Temp;Humidity;BMP_temperature;BMP_pressure;BME280_temperature;BME280_humidity;BME280_pressure;Samples;Min_cycle;Max_cycle;Signal;HPM_P1;HPM_P2
2022/05/12 00:00:03;;;;;;;16.23;9.50;;;384.30;2329.60;;;;;;5074568;28;20063;-78
2022/05/12 00:02:29;;;;;;;14.65;9.07;;;384.20;2329.60;;;;;;5073035;28;20036;-78
2022/05/12 00:04:55;;;;;;;12.75;9.00;;;384.30;2329.60;;;;;;5073229;28;20074;-78
2022/05/12 00:07:21;;;;;;;13.80;9.35;;;384.00;2329.60;;;;;;5072928;28;20086;-80
2022/05/12 00:09:47;;;;;;;12.98;8.85;;;384.00;2329.60;;;;;;5072934;28;20024;-80
2022/05/12 00:12:13;;;;;;;12.38;9.30;;;359.30;2329.60;;;;;;5073026;28;20051;-79
2022/05/12 00:14:39;;;;;;;13.27;9.02;;;359.30;2329.60;;;;;;5073045;28;20166;-79
2022/05/12 00:17:05;;;;;;;14.82;9.52;;;384.00;2329.60;;;;;;5073186;28;20036;-80
2022/05/12 00:19:32;;;;;;;11.65;8.38;;;384.00;2329.60;;;;;;5072646;28;20031;-79
2022/05/12 00:21:57;;;;;;;10.45;9.20;;;384.20;2329.60;;;;;;5074791;28;20024;-80
2022/05/12 00:24:24;;;;;;;13.05;9.45;;;384.10;2329.60;;;;;;5076033;28;20024;-79
2022/05/12 00:26:51;;;;;;;12.32;8.52;;;384.10;2329.60;;;;;;5076211;28;20028;-79
2022/05/12 00:29:17;;;;;;;13.27;8.45;;;359.30;2329.60;;;;;;5075643;28;20024;-80
2022/05/12 00:31:44;;;;;;;11.13;8.48;;;359.30;2329.60;;;;;;5076076;28;20020;-79
2022/05/12 00:34:13;;;;;;;12.75;7.70;;;359.30;2329.60;;;;;;5075990;28;20032;-79
2022/05/12 00:36:39;;;;;;;13.07;8.55;;;359.30;2329.60;;;;;;5075655;28;20032;-79
2022/05/12 00:39:05;;;;;;;10.65;8.52;;;359.30;2329.60;;;;;;5093961;28;20095;-79
2022/05/12 00:41:31;;;;;;;11.23;9.57;;;359.10;2329.60;;;;;;5075979;28;20461;-79
2022/05/12 00:44:02;;;;;;;13.57;9.13;;;359.10;2329.60;;;;;;5093084;28;20027;-79
2022/05/12 00:46:33;;;;;;;10.82;9.10;;;359.10;2329.60;;;;;;5076066;28;20172;-79
2022/05/12 00:49:18;;;;;;;9.57;8.20;;;359.10;2329.60;;;;;;5093853;28;20085;-80
2022/05/12 00:51:57;;;;;;;13.48;8.68;;;359.10;2329.60;;;;;;5075656;28;20028;-78
2022/05/12 00:54:38;;;;;;;10.25;8.80;;;359.00;2329.60;;;;;;5094054;28;20428;-78
2022/05/12 00:57:07;;;;;;;11.73;8.95;;;358.90;2329.60;;;;;;5075830;28;20119;-78
2022/05/12 00:59:34;;;;;;;12.60;8.85;;;358.80;2329.60;;;;;;5075643;28;20035;-78
2022/05/12 01:02:02;;;;;;;12.68;8.93;;;358.80;2329.60;;;;;;5093526;28;20115;-79
2022/05/12 01:04:31;;;;;;;11.02;9.13;;;358.90;2329.60;;;;;;5075396;28;20433;-80
2022/05/12 01:06:58;;;;;;;13.73;10.27;;;358.90;2329.60;;;;;;5075611;28;20027;-78
2022/05/12 01:09:26;;;;;;;10.50;8.80;;;358.90;2329.60;;;;;;5075683;28;20385;-78
2022/05/12 01:11:52;;;;;;;11.57;9.70;;;358.80;2329.60;;;;;;5093270;28;20031;-79
2022/05/12 01:14:18;;;;;;;13.30;10.07;;;358.90;2329.60;;;;;;5093424;28;20028;-79
2022/05/12 01:16:52;;;;;;;12.73;8.80;;;358.90;2329.60;;;;;;5075566;28;20354;-80
2022/05/12 01:19:22;;;;;;;10.48;8.40;;;358.90;2329.60;;;;;;5075423;28;20483;-79
2022/05/12 01:21:50;;;;;;;13.50;8.90;;;359.00;2329.60;;;;;;5075253;28;20052;-79
2022/05/12 01:24:18;;;;;;;13.38;8.75;;;359.10;2329.60;;;;;;5075414;28;20024;-80
2022/05/12 01:26:44;;;;;;;11.68;8.85;;;359.00;2329.60;;;;;;5093758;28;20107;-81
2022/05/12 01:29:10;;;;;;;14.15;9.52;;;358.80;2329.60;;;;;;5077218;28;20032;-80
2022/05/12 01:31:36;;;;;;;11.50;8.93;;;358.80;2329.60;;;;;;5077496;28;20465;-81
2022/05/12 01:34:05;;;;;;;16.88;9.68;;;358.80;2329.60;;;;;;5076163;28;20365;-78
2022/05/12 01:36:31;;;;;;;13.57;9.63;;;358.90;2329.60;;;;;;5075395;28;20028;-80
2022/05/12 01:38:57;;;;;;;12.88;9.10;;;358.80;2329.60;;;;;;5075386;28;20024;-79
2022/05/12 01:41:23;;;;;;;14.05;9.43;;;358.60;2329.60;;;;;;5075195;28;20035;-80
2022/05/12 01:43:50;;;;;;;11.63;8.90;;;358.70;2329.60;;;;;;5075391;28;20388;-79
2022/05/12 01:46:15;;;;;;;14.02;8.88;;;358.90;2329.60;;;;;;5075020;28;20377;-80
2022/05/12 01:48:41;;;;;;;12.88;9.07;;;358.90;2329.60;;;;;;5075223;28;20035;-78
2022/05/12 01:51:08;;;;;;;17.15;9.70;;;358.90;2329.60;;;;;;5075242;28;20028;-80
2022/05/12 01:53:37;;;;;;;15.98;9.20;;;358.80;2329.60;;;;;;5074862;28;20058;-78
2022/05/12 01:56:05;;;;;;;14.27;9.07;;;358.70;2329.60;;;;;;5078290;28;20463;-79
2022/05/12 01:58:32;;;;;;;12.30;9.07;;;358.60;2329.60;;;;;;5078966;28;20024;-79
2022/05/12 02:00:57;;;;;;;11.52;9.70;;;358.60;2329.60;;;;;;5078697;28;20487;-80
2022/05/12 02:03:24;;;;;;;11.05;9.10;;;358.70;2329.60;;;;;;5078960;28;20032;-79
2022/05/12 02:05:50;;;;;;;17.73;9.02;;;358.80;2329.60;;;;;;5078907;28;20077;-79
2022/05/12 02:08:18;;;;;;;13.65;8.77;;;358.80;2329.60;;;;;;5078639;28;20475;-79
2022/05/12 02:10:49;;;;;;;12.20;9.05;;;358.50;2329.60;;;;;;5078770;28;20021;-80
2022/05/12 02:13:17;;;;;;;12.65;8.50;;;358.50;2329.60;;;;;;5078779;28;20028;-81
2022/05/12 02:15:43;;;;;;;15.18;9.43;;;333.70;2329.60;;;;;;5078557;28;20035;-78
2022/05/12 02:18:10;;;;;;;14.73;9.85;;;333.60;2329.60;;;;;;5078686;28;20028;-79
2022/05/12 02:20:36;;;;;;;13.10;9.18;;;333.60;2329.60;;;;;;5096565;28;20028;-78
2022/05/12 02:23:05;;;;;;;11.98;9.15;;;333.70;2329.60;;;;;;5078046;28;20508;-80
2022/05/12 02:25:31;;;;;;;12.57;9.65;;;333.70;2329.60;;;;;;5078732;28;20027;-79
2022/05/12 02:27:57;;;;;;;13.30;9.38;;;333.60;2329.60;;;;;;5078588;28;20031;-79
2022/05/12 02:30:29;;;;;;;14.27;9.55;;;333.50;2329.60;;;;;;5078142;28;20489;-81
2022/05/12 02:32:58;;;;;;;14.20;9.38;;;333.60;2329.60;;;;;;5078537;28;20039;-79
2022/05/12 02:35:25;;;;;;;12.65;9.18;;;358.40;2329.60;;;;;;5078204;28;20096;-79
2022/05/12 02:37:51;;;;;;;13.55;10.13;;;333.30;2329.60;;;;;;5078357;28;20020;-80
2022/05/12 02:40:20;;;;;;;12.98;9.15;;;333.60;2329.60;;;;;;5078445;28;20028;-80
2022/05/12 02:42:49;;;;;;;13.27;9.32;;;333.50;2329.60;;;;;;5077844;28;20036;-80
2022/05/12 02:45:16;;;;;;;11.82;9.35;;;333.50;2329.60;;;;;;5078158;28;20055;-78
2022/05/12 02:47:42;;;;;;;11.95;9.68;;;333.40;2329.60;;;;;;5078188;28;20028;-78
2022/05/12 02:50:11;;;;;;;10.98;8.93;;;333.60;2329.60;;;;;;5077527;28;20025;-80
2022/05/12 02:52:37;;;;;;;12.48;9.48;;;333.50;2329.60;;;;;;5077972;28;20073;-81
2022/05/12 02:55:07;;;;;;;12.95;9.38;;;333.50;2329.60;;;;;;5078049;28;20024;-80
2022/05/12 02:57:33;;;;;;;11.75;9.77;;;333.70;2329.60;;;;;;5077684;28;20427;-79
2022/05/12 02:59:59;;;;;;;15.68;10.35;;;333.70;2329.60;;;;;;5077860;28;20024;-80
2022/05/12 03:02:25;;;;;;;18.30;10.13;;;333.70;2329.60;;;;;;5077938;28;20024;-77
2022/05/12 03:04:51;;;;;;;16.30;10.23;;;333.40;2329.60;;;;;;5077507;28;20377;-80
2022/05/12 03:07:17;;;;;;;15.18;9.77;;;333.40;2329.60;;;;;;5077465;28;20059;-78
2022/05/12 03:09:43;;;;;;;17.50;10.32;;;333.50;2329.60;;;;;;5077707;28;20115;-79
2022/05/12 03:12:09;;;;;;;14.82;10.05;;;333.30;2329.60;;;;;;5077415;28;20039;-80
2022/05/12 03:14:35;;;;;;;16.77;10.77;;;333.30;2329.60;;;;;;5077541;28;20059;-80
2022/05/12 03:17:02;;;;;;;20.98;10.48;;;333.20;2329.60;;;;;;5077616;28;20051;-79
2022/05/12 03:19:32;;;;;;;14.23;10.32;;;333.30;2329.60;;;;;;5077214;28;20024;-80
2022/05/12 03:21:59;;;;;;;16.05;13.25;;;333.20;2329.60;;;;;;5077264;28;20024;-79
2022/05/12 03:24:24;;;;;;;15.55;10.43;;;333.10;2329.60;;;;;;5077175;28;20063;-81
2022/05/12 03:26:50;;;;;;;14.18;9.95;;;332.90;2329.60;;;;;;5077351;28;20052;-80
2022/05/12 03:29:17;;;;;;;13.80;9.30;;;332.80;2329.60;;;;;;5077453;28;20028;-80
2022/05/12 03:31:44;;;;;;;11.70;9.68;;;332.90;2329.60;;;;;;5077067;28;20115;-79
2022/05/12 03:34:10;;;;;;;12.00;9.35;;;332.90;2329.60;;;;;;5077145;28;20438;-80
2022/05/12 03:36:39;;;;;;;11.38;9.15;;;332.90;2329.60;;;;;;5077196;28;20028;-78
2022/05/12 03:39:07;;;;;;;15.07;9.25;;;333.10;2329.60;;;;;;5076959;28;20047;-78
2022/05/12 03:41:33;;;;;;;14.02;9.93;;;308.10;2304.00;;;;;;5077028;28;20035;-78
2022/05/12 03:46:43;;;;;;;17.92;9.07;;;307.70;2304.00;;;;;;5094932;28;20035;-78
2022/05/12 03:49:09;;;;;;;12.07;8.75;;;307.90;2304.00;;;;;;5077003;28;20024;-78
2022/05/12 03:51:35;;;;;;;13.73;9.63;;;307.90;2304.00;;;;;;5077013;28;20024;-80
2022/05/12 03:54:03;;;;;;;10.77;8.85;;;308.00;2304.00;;;;;;5076557;28;20529;-78
2022/05/12 03:56:40;;;;;;;14.13;8.77;;;307.80;2304.00;;;;;;5076832;28;20032;-79
2022/05/12 03:59:06;;;;;;;12.70;9.90;;;307.80;2304.00;;;;;;5076873;28;20028;-78
2022/05/12 04:01:32;;;;;;;17.23;10.57;;;308.00;2304.00;;;;;;5076849;28;20028;-79
2022/05/12 04:04:02;;;;;;;12.30;9.32;;;308.10;2304.00;;;;;;5076798;28;20028;-78
2022/05/12 04:06:28;;;;;;;12.77;10.45;;;332.80;2329.60;;;;;;5076497;28;20475;-77
2022/05/12 04:09:03;;;;;;;12.40;9.88;;;332.90;2329.60;;;;;;5076673;28;20041;-80
2022/05/12 04:11:30;;;;;;;11.75;9.82;;;332.80;2329.60;;;;;;5094505;28;20024;-80
2022/05/12 04:13:56;;;;;;;11.95;8.77;;;308.10;2304.00;;;;;;5076166;28;20036;-79
2022/05/12 04:16:23;;;;;;;13.00;9.25;;;332.80;2329.60;;;;;;5076450;28;20032;-77
2022/05/12 04:18:49;;;;;;;13.55;9.98;;;332.90;2329.60;;;;;;5075403;28;20028;-80
2022/05/12 04:21:18;;;;;;;13.00;9.60;;;332.80;2329.60;;;;;;5076129;28;20024;-78
2022/05/12 04:23:44;;;;;;;12.68;9.13;;;332.90;2329.60;;;;;;5076565;28;20124;-77
2022/05/12 04:26:11;;;;;;;11.40;9.32;;;333.10;2329.60;;;;;;5076341;28;20028;-80
2022/05/12 04:28:37;;;;;;;15.70;10.10;;;307.70;2304.00;;;;;;5076000;28;20105;-79
2022/05/12 04:31:03;;;;;;;16.02;10.25;;;308.10;2304.00;;;;;;5076265;28;20028;-78
2022/05/12 04:36:17;;;;;;;13.93;11.30;;;332.90;2329.60;;;;;;5094061;28;20088;-81
2022/05/12 04:38:43;;;;;;;18.27;9.95;;;333.40;2329.60;;;;;;5076144;28;20067;-80
2022/05/12 04:41:09;;;;;;;18.13;11.55;;;333.10;2329.60;;;;;;5075829;28;20024;-79
2022/05/12 04:43:36;;;;;;;15.05;10.30;;;333.00;2329.60;;;;;;5075955;28;20028;-78
2022/05/12 04:46:02;;;;;;;15.48;10.50;;;333.10;2329.60;;;;;;5075997;28;20024;-79
2022/05/12 04:48:29;;;;;;;21.65;11.82;;;333.20;2329.60;;;;;;5075813;28;20024;-79
2022/05/12 04:50:56;;;;;;;18.88;10.90;;;333.10;2329.60;;;;;;5075946;28;20028;-79
2022/05/12 04:53:22;;;;;;;18.15;11.15;;;333.10;2329.60;;;;;;5076226;28;20077;-78
2022/05/12 04:55:48;;;;;;;17.30;11.15;;;333.00;2329.60;;;;;;5075918;28;20028;-79
2022/05/12 04:58:14;;;;;;;16.58;11.70;;;333.10;2329.60;;;;;;5076213;28;20445;-78
2022/05/12 05:00:43;;;;;;;26.42;12.70;;;333.10;2329.60;;;;;;5076042;28;20069;-79
2022/05/12 05:03:11;;;;;;;19.02;12.13;;;333.10;2329.60;;;;;;5075880;28;20039;-79
2022/05/12 05:05:37;;;;;;;21.73;13.75;;;333.30;2329.60;;;;;;5077005;28;20461;-80
2022/05/12 05:08:04;;;;;;;20.42;12.10;;;333.30;2329.60;;;;;;5076481;28;20024;-79
2022/05/12 05:10:32;;;;;;;30.27;13.80;;;333.40;2329.60;;;;;;5075807;28;20453;-78
2022/05/12 05:12:59;;;;;;;19.75;12.18;;;333.50;2329.60;;;;;;5075627;28;20035;-82
2022/05/12 05:15:25;;;;;;;21.27;11.98;;;333.60;2329.60;;;;;;5075753;28;20092;-81
2022/05/12 05:17:52;;;;;;;19.35;11.95;;;333.60;2329.60;;;;;;5075436;28;20114;-80
2022/05/12 05:20:25;;;;;;;24.73;13.02;;;333.70;2329.60;;;;;;5076089;28;20024;-82
2022/05/12 05:22:51;;;;;;;18.15;12.68;;;333.70;2329.60;;;;;;5076333;28;20560;-80
2022/05/12 05:25:21;;;;;;;22.08;12.20;;;358.40;2329.60;;;;;;5077220;28;20047;-79
2022/05/12 05:27:48;;;;;;;20.45;12.73;;;358.50;2329.60;;;;;;5086432;28;20024;-81
2022/05/12 05:30:19;;;;;;;25.35;12.57;;;358.50;2329.60;;;;;;5094821;28;20024;-81
2022/05/12 05:32:46;;;;;;;29.77;11.90;;;358.70;2329.60;;;;;;5095119;28;20059;-81
2022/05/12 05:35:18;;;;;;;18.60;12.88;;;358.70;2329.60;;;;;;5109570;28;20107;-79
2022/05/12 05:37:44;;;;;;;26.92;12.18;;;358.90;2329.60;;;;;;5083372;28;20024;-80
2022/05/12 05:40:14;;;;;;;20.95;12.00;;;359.00;2329.60;;;;;;5086670;28;20028;-81
2022/05/12 05:42:41;;;;;;;19.10;11.45;;;359.20;2329.60;;;;;;5091198;28;20032;-81
2022/05/12 05:45:11;;;;;;;17.98;12.02;;;359.30;2329.60;;;;;;5093194;28;20031;-81
2022/05/12 05:47:42;;;;;;;20.60;11.68;;;384.10;2329.60;;;;;;5090558;28;20111;-80
2022/05/12 05:50:10;;;;;;;30.17;16.10;;;384.30;2329.60;;;;;;5079673;28;20024;-80
2022/05/12 05:55:21;;;;;;;15.00;12.13;;;384.50;2329.60;;;;;;5097154;28;20031;-79
2022/05/12 05:57:47;;;;;;;19.67;11.82;;;384.60;2329.60;;;;;;5079170;28;20074;-79
2022/05/12 06:00:15;;;;;;;13.75;10.25;;;384.70;2329.60;;;;;;5078807;28;20024;-76
2022/05/12 06:02:41;;;;;;;20.33;12.27;;;384.70;2329.60;;;;;;5078984;28;20036;-79
2022/05/12 06:05:08;;;;;;;16.17;12.35;;;384.90;2329.60;;;;;;5096646;28;20024;-78
2022/05/12 06:07:38;;;;;;;15.15;11.52;;;384.90;2329.60;;;;;;5078904;28;20024;-80
2022/05/12 06:10:06;;;;;;;18.25;10.57;;;409.70;2355.20;;;;;;5078959;28;20024;-83
2022/05/12 06:12:33;;;;;;;17.67;11.27;;;409.80;2355.20;;;;;;5078562;28;20028;-81
2022/05/12 06:14:59;;;;;;;18.35;11.70;;;409.90;2355.20;;;;;;5078796;28;20024;-81
2022/05/12 06:17:26;;;;;;;18.25;11.07;;;410.00;2355.20;;;;;;5096878;28;20028;-78
2022/05/12 06:19:52;;;;;;;20.38;10.73;;;410.20;2355.20;;;;;;5096272;28;20365;-77
2022/05/12 06:22:22;;;;;;;15.13;9.70;;;410.20;2355.20;;;;;;5078207;28;20044;-77
2022/05/12 06:24:49;;;;;;;12.60;9.10;;;410.30;2355.20;;;;;;5096535;28;20073;-80
2022/05/12 06:27:19;;;;;;;14.00;8.00;;;410.40;2355.20;;;;;;5078580;28;20021;-79
2022/05/12 06:29:45;;;;;;;11.45;8.77;;;410.50;2355.20;;;;;;5078527;28;20035;-77
2022/05/12 06:32:12;;;;;;;13.35;9.25;;;435.30;2355.20;;;;;;5078374;28;20024;-76
2022/05/12 06:34:42;;;;;;;17.83;9.23;;;435.40;2355.20;;;;;;5078113;28;20473;-77
2022/05/12 06:37:08;;;;;;;13.95;7.65;;;435.60;2355.20;;;;;;5078438;28;20483;-77
2022/05/12 06:39:34;;;;;;;14.57;9.40;;;435.80;2355.20;;;;;;5078309;28;20024;-77
2022/05/12 06:42:01;;;;;;;14.27;8.10;;;435.90;2355.20;;;;;;5077353;28;20047;-76
2022/05/12 06:44:27;;;;;;;12.45;8.93;;;436.10;2355.20;;;;;;5078282;28;20051;-76
2022/05/12 06:46:53;;;;;;;13.15;8.73;;;436.10;2355.20;;;;;;5096446;28;20035;-76
2022/05/12 06:49:19;;;;;;;10.95;8.43;;;460.90;2380.80;;;;;;5077838;28;20032;-78
2022/05/12 06:51:45;;;;;;;14.48;8.85;;;461.00;2380.80;;;;;;5078102;28;20024;-79
2022/05/12 06:54:12;;;;;;;17.92;9.90;;;461.10;2380.80;;;;;;5077648;28;20038;-78
2022/05/12 06:56:38;;;;;;;12.27;8.93;;;461.40;2380.80;;;;;;5078160;28;20374;-79
2022/05/12 06:59:04;;;;;;;12.68;8.50;;;461.40;2380.80;;;;;;5077961;28;20078;-78
2022/05/12 07:01:30;;;;;;;26.35;11.50;;;461.40;2380.80;;;;;;5077831;28;20024;-78
2022/05/12 07:04:00;;;;;;;12.02;7.95;;;461.60;2380.80;;;;;;5078030;28;20461;-78
2022/05/12 07:06:26;;;;;;;12.60;8.15;;;461.70;2380.80;;;;;;5078060;28;20024;-79
2022/05/12 07:08:53;;;;;;;12.98;8.70;;;486.70;2380.80;;;;;;5077601;28;20069;-77
2022/05/12 07:11:19;;;;;;;14.93;9.32;;;486.90;2380.80;;;;;;5077736;28;20500;-75
2022/05/12 07:13:46;;;;;;;12.70;7.85;;;487.00;2380.80;;;;;;5077669;28;20385;-76
2022/05/12 07:16:12;;;;;;;11.80;8.00;;;487.00;2380.80;;;;;;5076189;28;20047;-76
2022/05/12 07:18:38;;;;;;;12.48;7.95;;;487.00;2380.80;;;;;;5097847;28;20031;-74
2022/05/12 07:26:39;;;;;;;12.52;7.93;;;512.30;2380.80;;;;;;5095615;28;20031;-76
2022/05/12 07:29:11;;;;;;;8.98;7.47;;;512.60;2380.80;;;;;;5077128;28;20020;-75
2022/05/12 07:31:38;;;;;;;11.63;7.35;;;512.50;2380.80;;;;;;5094111;28;20028;-76
2022/05/12 07:34:03;;;;;;;12.48;7.30;;;512.60;2380.80;;;;;;5094787;28;20107;-76
2022/05/12 07:36:33;;;;;;;11.40;7.10;;;512.90;2380.80;;;;;;5094605;28;20131;-75
2022/05/12 07:39:00;;;;;;;8.63;6.88;;;537.80;2406.40;;;;;;5077267;28;20024;-76
2022/05/12 07:41:27;;;;;;;13.95;7.13;;;538.00;2380.80;;;;;;5077008;28;20040;-77
2022/05/12 07:43:54;;;;;;;11.27;6.93;;;538.00;2355.20;;;;;;5076692;28;20036;-78
2022/05/12 07:46:26;;;;;;;10.88;6.75;;;538.10;2329.60;;;;;;5076918;28;20028;-76
2022/05/12 07:48:52;;;;;;;12.68;6.88;;;538.40;2278.40;;;;;;5076651;28;20116;-77
2022/05/12 07:51:18;;;;;;;11.82;7.45;;;538.50;2227.20;;;;;;5094695;28;20384;-76
2022/05/12 07:53:48;;;;;;;10.40;7.25;;;563.20;2227.20;;;;;;5075621;28;20064;-76
2022/05/12 07:56:16;;;;;;;19.35;13.43;;;563.30;2201.60;;;;;;5076704;28;20439;-77
2022/05/12 07:58:42;;;;;;;9.80;6.80;;;563.40;2176.00;;;;;;5094652;28;20457;-77
2022/05/12 08:01:09;;;;;;;12.00;6.75;;;563.60;2150.40;;;;;;5076570;28;20035;-77
2022/05/12 08:03:34;;;;;;;9.45;6.65;;;563.80;2150.40;;;;;;5076654;28;20392;-81
2022/05/12 08:06:01;;;;;;;9.40;5.97;;;563.70;2150.40;;;;;;5076021;28;20028;-77
2022/05/12 08:08:28;;;;;;;10.38;7.40;;;563.40;2150.40;;;;;;5094744;28;20038;-78
2022/05/12 08:10:54;;;;;;;9.00;5.88;;;563.80;2176.00;;;;;;5076359;28;20028;-77
2022/05/12 08:13:21;;;;;;;9.60;6.13;;;563.60;2176.00;;;;;;5076065;28;20054;-76
2022/05/12 08:15:50;;;;;;;9.48;7.03;;;563.80;2150.40;;;;;;5076131;28;20127;-78
2022/05/12 08:18:21;;;;;;;12.48;6.80;;;588.80;2176.00;;;;;;5075918;28;20384;-78
2022/05/12 08:20:48;;;;;;;10.68;6.55;;;589.10;2099.20;;;;;;5076201;28;20031;-76
2022/05/12 08:23:14;;;;;;;11.50;6.13;;;589.20;2099.20;;;;;;5094030;28;20160;-77
2022/05/12 08:25:41;;;;;;;13.48;6.18;;;588.90;2099.20;;;;;;5094063;28;20136;-76
2022/05/12 08:28:08;;;;;;;12.88;7.35;;;589.10;2124.80;;;;;;5076013;28;20373;-77
2022/05/12 08:30:34;;;;;;;13.15;7.15;;;589.50;2099.20;;;;;;5076769;28;20031;-77
2022/05/12 08:33:00;;;;;;;9.55;6.20;;;614.40;2073.60;;;;;;5095352;28;20039;-78
2022/05/12 08:35:27;;;;;;;9.43;5.70;;;614.50;2022.40;;;;;;5077462;28;20036;-77
2022/05/12 08:37:53;;;;;;;11.77;6.80;;;589.70;2022.40;;;;;;5075994;28;20035;-79
2022/05/12 08:40:37;;;;;;;10.70;6.72;;;614.40;2048.00;;;;;;5075590;28;20545;-77
2022/05/12 08:43:44;;;;;;;7.70;5.93;;;614.80;2022.40;;;;;;5075979;28;20487;-78
2022/05/12 08:46:40;;;;;;;14.65;6.28;;;615.10;1996.80;;;;;;5062198;28;20047;-77
2022/05/12 08:49:28;;;;;;;10.27;5.97;;;615.20;1971.20;;;;;;5094178;28;20035;-77
2022/05/12 08:52:13;;;;;;;11.70;5.88;;;615.30;1945.60;;;;;;5075582;28;20051;-77
2022/05/12 08:54:43;;;;;;;11.70;6.07;;;640.20;1945.60;;;;;;5075415;28;20036;-79
2022/05/12 08:57:26;;;;;;;7.28;5.80;;;640.10;1894.40;;;;;;5075718;28;20548;-76
2022/05/12 08:59:52;;;;;;;9.45;5.78;;;640.40;1894.40;;;;;;5093778;28;20062;-76
2022/05/12 09:03:07;;;;;;;12.18;8.07;;;640.70;1894.40;;;;;;5075419;28;20044;-76
2022/05/12 09:05:42;;;;;;;9.35;5.80;;;640.90;1868.80;;;;;;5032618;28;20119;-77
2022/05/12 09:08:28;;;;;;;10.23;5.38;;;665.60;1894.40;;;;;;5093095;28;20412;-76
2022/05/12 09:11:12;;;;;;;11.30;6.20;;;665.80;1868.80;;;;;;5091658;28;20418;-76
2022/05/12 09:13:49;;;;;;;7.38;5.30;;;666.00;1868.80;;;;;;5093300;28;20492;-76
2022/05/12 09:16:31;;;;;;;9.05;5.57;;;666.30;1843.20;;;;;;5075485;28;20059;-76
2022/05/12 09:18:58;;;;;;;7.78;5.13;;;666.40;1817.60;;;;;;5075247;28;20381;-76
2022/05/12 09:21:28;;;;;;;11.05;5.53;;;666.40;1817.60;;;;;;5075209;28;20028;-76
2022/05/12 09:23:56;;;;;;;6.78;5.25;;;691.20;1817.60;;;;;;5074998;28;20052;-77
2022/05/12 09:26:46;;;;;;;11.15;6.65;;;691.30;1766.40;;;;;;5074889;28;20135;-77
2022/05/12 09:29:24;;;;;;;7.60;6.35;;;691.40;1740.80;;;;;;5093783;28;20027;-76
2022/05/12 09:31:57;;;;;;;10.48;5.50;;;691.70;1740.80;;;;;;5092913;28;20056;-77
2022/05/12 09:34:33;;;;;;;13.38;6.53;;;691.60;1715.20;;;;;;5075393;28;20032;-77
2022/05/12 09:37:20;;;;;;;10.98;7.03;;;691.90;1715.20;;;;;;5075149;28;20028;-76
2022/05/12 09:39:49;;;;;;;8.57;5.22;;;692.00;1689.60;;;;;;5093051;28;20369;-77
2022/05/12 09:42:38;;;;;;;10.95;6.38;;;691.70;1689.60;;;;;;5075391;28;20032;-77
2022/05/12 09:45:18;;;;;;;9.15;5.45;;;691.90;1715.20;;;;;;5092194;28;20083;-76
2022/05/12 09:47:44;;;;;;;7.88;6.15;;;691.40;1715.20;;;;;;5075010;28;20047;-75
2022/05/12 09:50:19;;;;;;;8.43;5.25;;;691.50;1689.60;;;;;;5075313;28;20384;-76
2022/05/12 09:52:57;;;;;;;10.38;4.88;;;691.30;1689.60;;;;;;5074925;28;20081;-76
2022/05/12 09:55:27;;;;;;;8.85;5.32;;;691.60;1664.00;;;;;;5093037;28;20587;-75
2022/05/12 09:58:05;;;;;;;9.27;5.85;;;691.90;1689.60;;;;;;5075155;28;20028;-77
2022/05/12 10:00:43;;;;;;;9.27;5.88;;;692.10;1689.60;;;;;;5092650;28;20540;-77
2022/05/12 10:09:04;;;;;;;7.82;4.85;;;717.00;1638.40;;;;;;5092873;28;20460;-77
2022/05/12 10:11:35;;;;;;;9.25;6.40;;;717.20;1612.80;;;;;;5074906;28;20036;-76
2022/05/12 10:14:04;;;;;;;6.90;4.82;;;717.70;1638.40;;;;;;5074821;28;20056;-75
2022/05/12 10:16:32;;;;;;;16.02;6.25;;;742.40;1638.40;;;;;;5094921;28;20435;-76
2022/05/12 10:19:04;;;;;;;10.10;6.50;;;742.80;1612.80;;;;;;5078857;28;20066;-75
2022/05/12 10:21:30;;;;;;;6.25;4.10;;;743.10;1612.80;;;;;;5078427;28;20051;-75
2022/05/12 10:24:25;;;;;;;8.85;5.15;;;742.80;1536.00;;;;;;5078149;28;20052;-75
2022/05/12 10:27:03;;;;;;;9.77;4.55;;;742.50;1536.00;;;;;;5096983;28;20110;-75
2022/05/12 10:29:38;;;;;;;10.18;6.35;;;742.50;1587.20;;;;;;5096807;28;20024;-76
2022/05/12 10:32:22;;;;;;;8.02;5.75;;;743.00;1561.60;;;;;;5078777;28;20016;-74
2022/05/12 10:35:10;;;;;;;8.40;6.03;;;743.10;1536.00;;;;;;5078533;28;20047;-75
2022/05/12 10:37:50;;;;;;;13.07;7.60;;;768.00;1536.00;;;;;;5078613;28;20035;-75
2022/05/12 10:40:28;;;;;;;8.32;4.75;;;768.50;1536.00;;;;;;5076394;28;20044;-75
2022/05/12 10:43:07;;;;;;;9.52;5.65;;;768.70;1510.40;;;;;;5077880;28;20028;-75
2022/05/12 10:45:54;;;;;;;6.75;4.63;;;768.90;1484.80;;;;;;5096215;28;20028;-75
2022/05/12 10:48:44;;;;;;;7.38;5.03;;;768.70;1484.80;;;;;;5078150;28;20028;-75
2022/05/12 10:51:36;;;;;;;10.55;5.53;;;793.60;1510.40;;;;;;5073670;28;20024;-75
2022/05/12 10:54:20;;;;;;;;;;;768.90;1433.60;;;;;;5068635;28;20056;-75
2022/05/12 10:57:35;;;;;;;7.63;4.15;;;768.80;1433.60;;;;;;5077711;28;20011;-75
2022/05/12 11:00:23;;;;;;;5.97;4.50;;;768.90;1433.60;;;;;;5066760;28;20039;-75
2022/05/12 11:02:55;;;;;;;6.25;4.07;;;794.00;1459.20;;;;;;5079375;28;20477;-74
2022/05/12 11:05:21;;;;;;;6.45;4.38;;;794.20;1433.60;;;;;;5095865;28;20031;-74
2022/05/12 11:08:14;;;;;;;8.98;5.38;;;794.50;1433.60;;;;;;5077658;28;20028;-75
2022/05/12 11:10:58;;;;;;;7.82;3.90;;;794.50;1433.60;;;;;;5077434;28;20073;-75
2022/05/12 11:13:32;;;;;;;7.57;3.80;;;794.50;1408.00;;;;;;5077673;28;20373;-75
2022/05/12 11:16:21;;;;;;;5.88;3.58;;;794.50;1408.00;;;;;;5077660;28;20119;-74
2022/05/12 11:19:12;;;;;;;6.60;4.25;;;819.30;1408.00;;;;;;5077226;28;20020;-74
2022/05/12 11:21:59;;;;;;;8.88;5.40;;;819.40;1382.40;;;;;;5077516;28;20020;-74
2022/05/12 11:24:39;;;;;;;6.45;3.13;;;819.50;1356.80;;;;;;5094981;28;20511;-75
2022/05/12 11:27:28;;;;;;;5.20;3.22;;;819.30;1356.80;;;;;;5095099;28;20036;-75
2022/05/12 11:30:18;;;;;;;6.35;3.90;;;819.30;1356.80;;;;;;5074804;28;20028;-75
2022/05/12 11:33:16;;;;;;;7.13;3.33;;;819.50;1382.40;;;;;;5076796;28;20063;-74
2022/05/12 11:35:45;;;;;;;6.47;3.92;;;819.80;1331.20;;;;;;5043668;28;20433;-74
2022/05/12 11:38:40;;;;;;;11.40;5.97;;;820.00;1331.20;;;;;;5076643;28;20028;-75
2022/05/12 11:41:30;;;;;;;5.75;3.28;;;820.10;1331.20;;;;;;5095380;28;20020;-74
2022/05/12 11:44:27;;;;;;;7.70;3.80;;;819.90;1305.60;;;;;;5081900;28;20032;-74
2022/05/12 11:47:26;;;;;;;7.82;4.70;;;819.70;1305.60;;;;;;5094838;28;20074;-75
2022/05/12 11:50:05;;;;;;;5.50;3.28;;;819.40;1331.20;;;;;;5094968;28;20051;-76
2022/05/12 11:52:42;;;;;;;10.15;5.95;;;819.80;1331.20;;;;;;5076516;28;20028;-75
2022/05/12 11:55:26;;;;;;;7.55;4.47;;;819.70;1331.20;;;;;;5076981;28;20388;-75
2022/05/12 11:58:11;;;;;;;6.78;3.45;;;819.50;1331.20;;;;;;5095157;28;20020;-74
2022/05/12 12:00:37;;;;;;;8.57;3.90;;;819.40;1305.60;;;;;;5076139;28;20035;-75
2022/05/12 12:03:22;;;;;;;6.80;3.67;;;819.20;1331.20;;;;;;5094999;28;20031;-74
2022/05/12 12:05:47;;;;;;;7.40;3.53;;;819.40;1331.20;;;;;;5076626;28;20165;-76
2022/05/12 12:08:39;;;;;;;7.65;3.47;;;819.80;1305.60;;;;;;5076627;28;20114;-76
2022/05/12 12:11:14;;;;;;;;;;;844.90;1331.20;;;;;;5095293;28;20594;-75
2022/05/12 12:13:44;;;;;;;5.28;3.45;;;844.80;1305.60;;;;;;5094375;28;19912;-76
2022/05/12 12:16:59;;;;;;;7.38;3.10;;;845.10;1305.60;;;;;;5076624;28;20040;-75
2022/05/12 12:19:46;;;;;;;5.95;3.30;;;845.40;1356.80;;;;;;5061742;28;20039;-76
2022/05/12 12:22:26;;;;;;;7.45;4.68;;;845.60;1305.60;;;;;;5076308;28;20552;-75
2022/05/12 12:25:15;;;;;;;6.80;4.38;;;845.70;1305.60;;;;;;5076367;28;20024;-75
2022/05/12 12:27:47;;;;;;;8.38;4.18;;;870.50;1280.00;;;;;;5076002;28;20024;-74
2022/05/12 12:30:24;;;;;;;6.40;3.75;;;870.70;1254.40;;;;;;5076294;28;20028;-76
2022/05/12 12:33:25;;;;;;;7.60;4.30;;;870.40;1228.80;;;;;;5076279;28;20485;-76
2022/05/12 12:35:56;;;;;;;9.38;4.75;;;870.70;1280.00;;;;;;5040506;28;20036;-76
2022/05/12 12:38:44;;;;;;;6.05;4.13;;;870.80;1254.40;;;;;;5076085;28;20373;-76
2022/05/12 12:41:17;;;;;;;6.72;3.63;;;870.40;1254.40;;;;;;5075962;28;20119;-75
2022/05/12 12:44:03;;;;;;;6.55;3.85;;;870.50;1280.00;;;;;;5094372;28;20028;-74
2022/05/12 12:46:38;;;;;;;10.77;6.43;;;870.50;1254.40;;;;;;5075996;28;20020;-75
2022/05/12 12:49:13;;;;;;;6.07;4.20;;;870.40;1280.00;;;;;;5075825;28;20020;-76